Burns City, Indiana
Current Conditions -  °F | °C
As of 2:55 PM on Saturday 25 Oct 2014 (Local Time) from KDCY Reporting Station
Clear Clear  
Wind Chill: 77°   Ceiling: Unl
Heat Index: 78°   Visibility: 10mi
Dew Point: 55°   Wind: 8mph
Humidity: 46%   Direction: 290°WNW
Pressure: 29.97"   Gusts: NA
Location:  38.6074°N, 86.9234°W
Report Text: KDCY 251955Z AUTO 29007KT 10SM CLR 25/13 A2997 RMK AO2 T02480126
Loading
Personal Weather Stations






























Interactive Weather Map
Tropical Storm Tracking
New forecast layout! Learn more

10-Day Weather Forecast

Advertisements
Track Severe Weather on mobile